createdAt,value
2018-06-16T00:01:27.554Z,91.90
2018-06-16T00:04:03.892Z,91.80
2018-06-16T00:06:40.414Z,92.20
2018-06-16T00:09:17.406Z,91.50
2018-06-16T00:11:53.890Z,91.80
2018-06-16T00:14:30.267Z,91.40
2018-06-16T00:17:07.370Z,90.40
2018-06-16T00:19:43.731Z,90.20
2018-06-16T00:22:20.217Z,89.20
2018-06-16T00:25:01.036Z,89.60
2018-06-16T00:27:37.433Z,89.60
2018-06-16T00:30:13.827Z,90.30
2018-06-16T00:32:50.301Z,89.70
2018-06-16T00:35:26.624Z,89.20
2018-06-16T00:38:03.104Z,89.80
2018-06-16T00:40:39.569Z,90.00
2018-06-16T00:43:16.510Z,91.40
2018-06-16T00:45:52.921Z,91.00
2018-06-16T00:48:29.894Z,90.80
2018-06-16T00:51:06.614Z,91.00
2018-06-16T00:53:43.158Z,90.80
2018-06-16T00:56:19.683Z,91.30
2018-06-16T00:58:56.154Z,91.00
2018-06-16T01:01:32.531Z,90.20
2018-06-16T01:04:09.491Z,89.90
2018-06-16T01:06:45.969Z,91.80
2018-06-16T01:09:22.513Z,91.70
2018-06-16T01:11:59.064Z,93.10
2018-06-16T01:14:37.646Z,93.10
2018-06-16T01:17:13.926Z,92.90
2018-06-16T01:19:50.452Z,93.00
2018-06-16T01:22:26.907Z,92.80
2018-06-16T01:25:03.354Z,93.10
2018-06-16T01:27:39.761Z,93.50
2018-06-16T01:30:16.227Z,92.90
2018-06-16T01:32:52.748Z,92.60
2018-06-16T01:35:29.180Z,92.00
2018-06-16T01:38:05.868Z,92.40
2018-06-16T01:40:42.337Z,93.50
2018-06-16T01:43:18.875Z,93.50
2018-06-16T01:45:55.436Z,93.50
2018-06-16T01:48:31.936Z,93.50
2018-06-16T01:51:08.464Z,94.00
2018-06-16T01:53:44.735Z,94.10
2018-06-16T01:56:21.351Z,93.80
2018-06-16T01:58:57.807Z,94.20
2018-06-16T02:01:34.212Z,94.50
2018-06-16T02:04:10.747Z,94.40
2018-06-16T02:06:47.196Z,94.80
2018-06-16T02:09:23.679Z,94.70
2018-06-16T02:12:00.190Z,94.60
2018-06-16T02:14:40.403Z,95.30
2018-06-16T02:17:16.677Z,95.80
2018-06-16T02:19:55.594Z,95.90
2018-06-16T02:22:32.159Z,95.90
2018-06-16T02:25:09.362Z,95.70
2018-06-16T02:27:45.744Z,96.30
2018-06-16T02:30:22.252Z,96.00
2018-06-16T02:32:58.754Z,96.20
2018-06-16T02:35:35.303Z,95.90
2018-06-16T02:38:12.613Z,95.70
2018-06-16T02:40:49.124Z,96.50
2018-06-16T02:43:25.639Z,96.70
2018-06-16T02:46:02.209Z,96.90
2018-06-16T02:51:14.482Z,97.30
2018-06-16T02:53:51.020Z,97.40
2018-06-16T02:56:27.563Z,97.20
2018-06-16T02:59:04.032Z,98.10
2018-06-16T03:01:40.505Z,97.60
2018-06-16T03:04:16.894Z,97.90
2018-06-16T03:06:53.359Z,98.20
2018-06-16T03:09:29.901Z,97.90
2018-06-16T03:12:06.273Z,98.10
2018-06-16T03:14:42.721Z,98.10
2018-06-16T03:17:19.103Z,99.00
2018-06-16T03:19:56.192Z,99.00
2018-06-16T03:22:32.601Z,99.30
2018-06-16T03:25:09.181Z,99.70
2018-06-16T03:27:45.667Z,99.50
2018-06-16T03:30:22.365Z,99.70
2018-06-16T03:32:58.653Z,99.60
2018-06-16T03:35:35.274Z,99.70
2018-06-16T03:38:11.846Z,99.60
2018-06-16T03:40:48.233Z,99.70
2018-06-16T03:43:24.761Z,99.80
2018-06-16T03:46:01.242Z,99.90
2018-06-16T03:48:37.636Z,99.90
2018-06-16T03:51:14.220Z,99.30
2018-06-16T03:53:50.672Z,99.10
2018-06-16T03:56:28.346Z,99.30
2018-06-16T03:59:04.743Z,99.40
2018-06-16T04:01:41.071Z,99.50
2018-06-16T04:04:17.593Z,99.00
2018-06-16T04:06:53.961Z,98.70
2018-06-16T04:09:30.375Z,98.90
2018-06-16T04:12:07.046Z,98.70
2018-06-16T04:14:43.418Z,98.80
2018-06-16T04:17:20.978Z,99.20
2018-06-16T04:19:57.231Z,98.80
2018-06-16T04:22:33.779Z,98.60
2018-06-16T04:25:17.097Z,98.20
2018-06-16T04:27:53.332Z,98.50
2018-06-16T04:30:29.826Z,99.00
2018-06-16T04:33:06.399Z,98.40
2018-06-16T04:35:42.952Z,98.30
2018-06-16T04:38:19.238Z,98.00
2018-06-16T04:40:55.712Z,97.10
2018-06-16T04:43:32.111Z,97.40
2018-06-16T04:46:09.481Z,97.10
2018-06-16T04:48:45.884Z,97.20
2018-06-16T04:51:22.419Z,97.20
2018-06-16T04:53:58.784Z,98.50
2018-06-16T04:56:35.196Z,98.50
2018-06-16T04:59:11.515Z,97.20
2018-06-16T05:01:48.062Z,96.30
2018-06-16T05:04:24.425Z,96.30
2018-06-16T05:07:00.985Z,96.30
2018-06-16T05:09:37.513Z,96.50
2018-06-16T05:12:13.867Z,95.60
2018-06-16T05:14:50.397Z,96.20
2018-06-16T05:17:26.807Z,96.60
2018-06-16T05:20:03.497Z,96.80
2018-06-16T05:22:39.829Z,96.90
2018-06-16T05:25:16.781Z,95.60
2018-06-16T05:27:53.247Z,95.30
2018-06-16T05:30:31.381Z,96.10
2018-06-16T05:33:07.836Z,95.70
2018-06-16T05:35:44.156Z,97.20
2018-06-16T05:38:20.739Z,95.70
2018-06-16T05:40:57.083Z,94.50
2018-06-16T05:43:33.633Z,95.00
2018-06-16T05:46:10.040Z,92.50
2018-06-16T05:48:46.370Z,91.80
2018-06-16T05:51:22.909Z,93.00
2018-06-16T05:53:59.400Z,94.00
2018-06-16T05:56:35.888Z,93.60
2018-06-16T05:59:12.256Z,92.30
2018-06-16T06:01:48.597Z,91.30
2018-06-16T06:04:25.061Z,91.40
2018-06-16T06:07:01.607Z,90.10
2018-06-16T06:09:38.200Z,90.10
2018-06-16T06:12:15.169Z,90.00
2018-06-16T06:14:51.713Z,90.50
2018-06-16T06:17:28.132Z,89.70
2018-06-16T06:20:04.858Z,88.20
2018-06-16T06:22:41.117Z,86.40
2018-06-16T06:25:17.600Z,87.20
2018-06-16T06:27:54.794Z,86.40
2018-06-16T06:30:31.546Z,87.40
2018-06-16T06:33:08.062Z,86.70
2018-06-16T06:35:44.539Z,88.00
2018-06-16T06:38:21.024Z,85.60
2018-06-16T06:40:57.491Z,86.00
2018-06-16T06:43:40.719Z,85.60
2018-06-16T06:46:17.135Z,83.50
2018-06-16T06:48:53.512Z,82.80
2018-06-16T06:51:29.993Z,82.40
2018-06-16T06:54:06.760Z,82.30
2018-06-16T06:56:43.196Z,80.60
2018-06-16T06:59:20.295Z,79.70
2018-06-16T07:01:56.845Z,77.00
2018-06-16T07:04:33.414Z,75.40
2018-06-16T07:07:09.855Z,73.20
2018-06-16T07:09:46.212Z,73.90
2018-06-16T07:12:22.811Z,74.90
2018-06-16T07:14:59.364Z,74.10
2018-06-16T07:17:35.785Z,74.80
2018-06-16T07:20:12.313Z,70.90
2018-06-16T07:22:48.846Z,68.60
2018-06-16T07:25:25.354Z,67.80
2018-06-16T07:28:02.435Z,67.60
2018-06-16T07:30:40.285Z,66.20
2018-06-16T07:33:16.850Z,65.30
2018-06-16T07:35:53.204Z,63.40
2018-06-16T07:38:29.695Z,62.00
2018-06-16T07:41:06.459Z,57.60
2018-06-16T07:43:43.183Z,56.40
2018-06-16T07:46:19.591Z,57.40
2018-06-16T07:48:56.330Z,55.20
2018-06-16T07:51:32.539Z,55.70
2018-06-16T07:54:09.101Z,53.90
2018-06-16T07:56:45.709Z,55.60
2018-06-16T07:59:22.718Z,53.50
2018-06-16T08:01:59.178Z,52.00
2018-06-16T08:04:35.871Z,50.00
2018-06-16T08:07:12.395Z,48.70
2018-06-16T08:09:48.848Z,48.20
2018-06-16T08:12:26.075Z,52.80
2018-06-16T08:15:02.602Z,48.70
2018-06-16T08:17:38.902Z,49.10
2018-06-16T08:20:15.339Z,49.20
2018-06-16T08:22:51.692Z,47.90
2018-06-16T08:25:28.605Z,46.40
2018-06-16T08:28:04.967Z,46.50
2018-06-16T08:30:41.263Z,47.40
2018-06-16T08:33:17.597Z,45.50
2018-06-16T08:35:54.400Z,45.00
2018-06-16T08:38:30.707Z,43.40
2018-06-16T08:41:07.570Z,42.20
2018-06-16T08:43:44.053Z,41.80
2018-06-16T08:46:20.392Z,41.60
2018-06-16T08:48:56.799Z,40.60
2018-06-16T08:51:33.046Z,42.00
2018-06-16T08:54:09.813Z,40.10
2018-06-16T08:56:46.150Z,41.40
2018-06-16T08:59:22.685Z,41.00
2018-06-16T09:01:59.178Z,41.50
2018-06-16T09:04:35.735Z,38.10
2018-06-16T09:07:12.272Z,39.00
2018-06-16T09:09:48.508Z,38.70
2018-06-16T09:12:24.990Z,39.00
2018-06-16T09:15:01.463Z,39.60
2018-06-16T09:17:37.967Z,39.60
2018-06-16T09:20:14.409Z,40.20
2018-06-16T09:22:50.748Z,40.60
2018-06-16T09:25:27.030Z,37.90
2018-06-16T09:28:03.483Z,37.70
2018-06-16T09:30:39.937Z,37.80
2018-06-16T09:33:16.298Z,34.70
2018-06-16T09:35:53.364Z,35.30
2018-06-16T09:38:29.724Z,35.20
2018-06-16T09:41:07.588Z,34.60
2018-06-16T09:43:44.185Z,36.60
2018-06-16T09:46:20.915Z,34.50
2018-06-16T09:48:57.398Z,35.30
2018-06-16T09:51:33.891Z,35.10
2018-06-16T09:54:10.308Z,35.70
2018-06-16T09:56:46.800Z,36.30
2018-06-16T09:59:23.285Z,36.60
2018-06-16T10:01:59.799Z,34.90
2018-06-16T10:04:36.208Z,33.70
2018-06-16T10:07:12.674Z,33.00
2018-06-16T10:09:48.947Z,33.80
2018-06-16T10:12:25.366Z,33.80
2018-06-16T10:15:02.125Z,35.00
2018-06-16T10:17:39.308Z,35.90
2018-06-16T10:22:51.667Z,33.80
2018-06-16T10:25:28.184Z,33.90
2018-06-16T10:28:04.622Z,32.60
2018-06-16T10:33:17.188Z,34.20
2018-06-16T10:35:53.733Z,35.00
2018-06-16T10:38:30.147Z,35.60
2018-06-16T10:41:07.232Z,34.90
2018-06-16T10:43:43.649Z,35.90
2018-06-16T10:46:20.744Z,37.10
2018-06-16T10:48:57.234Z,37.80
2018-06-16T10:51:33.718Z,38.10
2018-06-16T10:54:10.212Z,38.00
2018-06-16T10:56:46.829Z,38.90
2018-06-16T10:59:23.305Z,39.10
2018-06-16T11:01:59.884Z,37.60
2018-06-16T11:04:37.158Z,37.10
2018-06-16T11:07:13.881Z,36.50
2018-06-16T11:09:50.314Z,36.40
2018-06-16T11:12:26.848Z,36.70
2018-06-16T11:15:03.164Z,36.20
2018-06-16T11:17:39.687Z,36.60
2018-06-16T11:20:16.147Z,36.60
2018-06-16T11:22:52.569Z,36.40
2018-06-16T11:25:29.584Z,37.50
2018-06-16T11:28:05.975Z,35.80
2018-06-16T11:30:42.371Z,34.80
2018-06-16T11:33:18.684Z,35.50
2018-06-16T11:35:55.509Z,35.00
2018-06-16T11:38:32.024Z,36.40
2018-06-16T11:41:08.306Z,36.60
2018-06-16T11:43:44.847Z,37.30
2018-06-16T11:46:21.225Z,36.90
2018-06-16T11:48:57.700Z,35.60
2018-06-16T11:51:35.977Z,36.00
2018-06-16T11:54:12.499Z,33.70
2018-06-16T11:56:49.037Z,33.60
2018-06-16T11:59:25.570Z,35.00
2018-06-16T12:02:01.960Z,35.20
2018-06-16T12:07:14.477Z,35.20
2018-06-16T12:09:50.889Z,34.20
2018-06-16T12:15:03.219Z,35.90
2018-06-16T12:17:39.762Z,36.40
2018-06-16T12:20:16.317Z,34.40
2018-06-16T12:22:52.686Z,36.20
2018-06-16T12:25:29.109Z,34.60
2018-06-16T12:28:05.628Z,32.40
2018-06-16T12:30:41.896Z,33.80
2018-06-16T12:33:18.425Z,32.80
2018-06-16T12:35:54.911Z,31.70
2018-06-16T12:38:31.361Z,33.30
2018-06-16T12:41:07.719Z,31.70
2018-06-16T12:43:44.221Z,31.60
2018-06-16T12:46:20.516Z,32.10
2018-06-16T12:48:57.028Z,30.50
2018-06-16T12:51:33.391Z,31.10
2018-06-16T12:54:10.224Z,30.90
2018-06-16T12:56:47.682Z,32.60
2018-06-16T12:59:24.573Z,33.40
2018-06-16T13:02:01.063Z,33.40
2018-06-16T13:04:37.554Z,32.60
2018-06-16T13:07:14.325Z,32.30
2018-06-16T13:09:50.641Z,32.40
2018-06-16T13:12:27.168Z,34.40
2018-06-16T13:15:03.719Z,32.70
2018-06-16T13:17:40.345Z,32.90
2018-06-16T13:20:16.655Z,34.00
2018-06-16T13:22:53.094Z,32.60
2018-06-16T13:25:29.709Z,32.60
2018-06-16T13:28:06.492Z,33.20
2018-06-16T13:30:42.741Z,33.90
2018-06-16T13:33:19.195Z,33.60
2018-06-16T13:35:56.413Z,32.40
2018-06-16T13:38:32.739Z,31.90
2018-06-16T13:41:09.201Z,31.50
2018-06-16T13:43:45.675Z,32.70
2018-06-16T13:46:22.131Z,32.40
2018-06-16T13:48:58.517Z,32.00
2018-06-16T13:51:35.378Z,31.80
2018-06-16T13:54:11.904Z,32.80
2018-06-16T13:56:48.267Z,33.40
2018-06-16T13:59:24.532Z,32.10
2018-06-16T14:02:02.159Z,31.90
2018-06-16T14:04:38.480Z,31.30
2018-06-16T14:07:14.886Z,32.80
2018-06-16T14:09:51.214Z,33.30
2018-06-16T14:12:27.640Z,32.30
2018-06-16T14:15:04.240Z,31.10
2018-06-16T14:17:40.531Z,33.20
2018-06-16T14:20:17.034Z,31.80
2018-06-16T14:22:53.628Z,31.60
2018-06-16T14:25:30.129Z,32.20
2018-06-16T14:28:06.578Z,31.80
2018-06-16T14:30:42.913Z,29.30
2018-06-16T14:33:19.431Z,28.50
2018-06-16T14:35:55.980Z,29.00
2018-06-16T14:38:32.435Z,28.30
2018-06-16T14:41:08.771Z,28.40
2018-06-16T14:43:45.289Z,28.80
2018-06-16T14:46:21.712Z,28.60
2018-06-16T14:48:58.247Z,30.00
2018-06-16T14:51:34.842Z,30.40
2018-06-16T14:54:11.735Z,29.30
2018-06-16T14:56:48.120Z,30.20
2018-06-16T14:59:24.548Z,30.00
2018-06-16T15:02:00.979Z,29.90
2018-06-16T15:04:37.726Z,30.40
2018-06-16T15:07:19.551Z,31.30
2018-06-16T15:09:55.875Z,31.10
2018-06-16T15:12:32.315Z,31.40
2018-06-16T15:15:08.847Z,31.20
2018-06-16T15:17:45.280Z,30.70
2018-06-16T15:20:21.931Z,32.50
2018-06-16T15:22:58.297Z,33.00
2018-06-16T15:25:34.975Z,33.30
2018-06-16T15:28:11.250Z,32.70
2018-06-16T15:30:48.287Z,32.50
2018-06-16T15:33:24.959Z,32.90
2018-06-16T15:36:01.910Z,32.40
2018-06-16T15:38:38.245Z,33.10
2018-06-16T15:41:14.993Z,32.80
2018-06-16T15:43:51.479Z,33.20
2018-06-16T15:46:28.019Z,34.10
2018-06-16T15:49:05.107Z,34.00
2018-06-16T15:54:17.646Z,33.80
2018-06-16T15:56:53.972Z,33.10
2018-06-16T15:59:30.812Z,33.80
2018-06-16T16:02:07.526Z,34.00
2018-06-16T16:07:20.283Z,34.00
2018-06-16T16:09:57.433Z,33.80
2018-06-16T16:12:34.009Z,33.60
2018-06-16T16:15:10.474Z,35.20
2018-06-16T16:17:46.747Z,35.30
2018-06-16T16:20:23.196Z,35.30
2018-06-16T16:22:59.594Z,35.80
2018-06-16T16:25:36.063Z,35.20
2018-06-16T16:28:12.367Z,36.00
2018-06-16T16:30:48.844Z,35.60
2018-06-16T16:33:25.287Z,37.00
2018-06-16T16:36:01.511Z,36.20
2018-06-16T16:38:38.518Z,36.10
2018-06-16T16:41:14.847Z,36.10
2018-06-16T16:43:51.293Z,36.90
2018-06-16T16:46:27.746Z,36.50
2018-06-16T16:49:04.221Z,36.30
2018-06-16T16:51:40.763Z,36.10
2018-06-16T16:54:17.120Z,36.70
2018-06-16T16:56:53.699Z,37.40
2018-06-16T16:59:30.204Z,37.00
2018-06-16T17:02:06.654Z,36.70
2018-06-16T17:04:42.913Z,34.70
2018-06-16T17:07:19.379Z,34.60
2018-06-16T17:09:55.918Z,35.80
2018-06-16T17:12:33.054Z,35.90
2018-06-16T17:15:09.585Z,38.50
2018-06-16T17:17:45.841Z,39.80
2018-06-16T17:20:22.316Z,38.90
2018-06-16T17:22:58.946Z,38.90
2018-06-16T17:25:35.381Z,38.90
2018-06-16T17:28:12.778Z,39.20
2018-06-16T17:30:49.226Z,38.90
2018-06-16T17:33:25.666Z,38.10
2018-06-16T17:36:02.253Z,39.40
2018-06-16T17:38:38.665Z,38.90
2018-06-16T17:41:14.964Z,39.20
2018-06-16T17:43:51.662Z,38.90
2018-06-16T17:46:28.027Z,39.00
2018-06-16T17:49:04.481Z,38.90
2018-06-16T17:51:40.889Z,38.40
2018-06-16T17:54:17.392Z,38.90
2018-06-16T17:56:53.822Z,38.50
2018-06-16T17:59:30.275Z,37.80
2018-06-16T18:02:06.826Z,38.90
2018-06-16T18:04:43.293Z,38.50
2018-06-16T18:07:19.747Z,39.30
2018-06-16T18:09:56.355Z,38.90
2018-06-16T18:12:32.603Z,39.50
2018-06-16T18:15:08.967Z,40.10
2018-06-16T18:17:45.876Z,40.80
2018-06-16T18:20:22.871Z,41.40
2018-06-16T18:22:59.315Z,40.70
2018-06-16T18:25:35.729Z,40.20
2018-06-16T18:28:12.252Z,40.70
2018-06-16T18:30:48.633Z,40.50
2018-06-16T18:33:25.192Z,40.50
2018-06-16T18:36:01.530Z,41.00
2018-06-16T18:38:38.084Z,41.50
2018-06-16T18:41:14.589Z,40.90
2018-06-16T18:43:51.044Z,41.40
2018-06-16T18:46:27.452Z,41.60
2018-06-16T18:49:03.976Z,42.00
2018-06-16T18:51:40.625Z,42.10
2018-06-16T18:54:17.195Z,42.60
2018-06-16T18:56:54.129Z,43.30
2018-06-16T18:59:30.668Z,43.90
2018-06-16T19:02:07.998Z,43.60
2018-06-16T19:04:44.785Z,43.50
2018-06-16T19:07:21.170Z,44.00
2018-06-16T19:09:57.843Z,44.50
2018-06-16T19:12:34.413Z,46.00
2018-06-16T19:15:11.035Z,46.90
2018-06-16T19:17:47.513Z,46.70
2018-06-16T19:20:23.954Z,48.00
2018-06-16T19:23:01.697Z,48.60
2018-06-16T19:28:15.530Z,49.60
2018-06-16T19:30:52.105Z,49.00
2018-06-16T19:33:28.414Z,50.50
2018-06-16T19:36:04.969Z,51.10
2018-06-16T19:38:41.539Z,52.90
2018-06-16T19:41:18.263Z,52.00
2018-06-16T19:43:55.008Z,53.10
2018-06-16T19:49:08.717Z,53.50
2018-06-16T19:51:45.319Z,54.50
2018-06-16T19:54:21.767Z,54.50
2018-06-16T19:56:58.930Z,54.90
2018-06-16T19:59:35.466Z,55.40
2018-06-16T20:02:12.025Z,56.00
2018-06-16T20:04:48.987Z,56.70
2018-06-16T20:07:25.365Z,57.60
2018-06-16T20:10:03.276Z,57.80
2018-06-16T20:12:39.652Z,58.30
2018-06-16T20:15:16.187Z,58.60
2018-06-16T20:17:52.475Z,58.70
2018-06-16T20:20:28.893Z,59.10
2018-06-16T20:23:05.306Z,59.50
2018-06-16T20:25:41.716Z,59.50
2018-06-16T20:28:18.846Z,60.60
2018-06-16T20:30:55.190Z,60.10
2018-06-16T20:33:32.819Z,61.70
2018-06-16T20:36:09.630Z,61.50
2018-06-16T20:38:46.174Z,61.40
2018-06-16T20:41:22.436Z,61.30
2018-06-16T20:43:58.914Z,62.10
2018-06-16T20:46:35.347Z,61.40
2018-06-16T20:49:11.620Z,61.80
2018-06-16T20:51:48.161Z,62.40
2018-06-16T20:54:24.682Z,62.60
2018-06-16T20:57:01.175Z,62.40
2018-06-16T20:59:37.712Z,63.20
2018-06-16T21:02:14.159Z,63.60
2018-06-16T21:04:50.614Z,63.90
2018-06-16T21:07:27.034Z,63.70
2018-06-16T21:10:03.628Z,63.50
2018-06-16T21:12:40.020Z,64.00
2018-06-16T21:15:16.423Z,65.20
2018-06-16T21:17:52.868Z,65.70
2018-06-16T21:20:29.314Z,65.60
2018-06-16T21:23:05.988Z,65.70
2018-06-16T21:25:42.491Z,64.90
2018-06-16T21:28:18.950Z,64.30
2018-06-16T21:30:55.326Z,63.40
2018-06-16T21:33:32.083Z,64.60
2018-06-16T21:36:08.400Z,63.90
2018-06-16T21:38:47.668Z,64.10
2018-06-16T21:41:24.228Z,65.50
2018-06-16T21:44:01.283Z,65.80
2018-06-16T21:46:37.572Z,65.60
2018-06-16T21:49:14.054Z,66.90
2018-06-16T21:51:50.527Z,65.70
2018-06-16T21:54:27.530Z,64.90
2018-06-16T21:57:03.934Z,65.80
2018-06-16T21:59:40.469Z,66.50
2018-06-16T22:02:16.955Z,65.30
2018-06-16T22:04:53.431Z,65.80
2018-06-16T22:07:29.916Z,64.10
2018-06-16T22:10:07.522Z,65.80
2018-06-16T22:12:43.819Z,66.60
2018-06-16T22:15:20.334Z,67.20
2018-06-16T22:17:56.970Z,66.40
2018-06-16T22:20:33.419Z,68.10
2018-06-16T22:23:09.955Z,68.80
2018-06-16T22:25:46.499Z,68.20
2018-06-16T22:28:23.055Z,67.80
2018-06-16T22:30:59.499Z,68.20
2018-06-16T22:33:35.949Z,65.50
2018-06-16T22:36:12.467Z,64.70
2018-06-16T22:38:50.614Z,65.00
2018-06-16T22:41:26.969Z,64.80
2018-06-16T22:44:05.465Z,65.10
2018-06-16T22:46:41.900Z,65.10
2018-06-16T22:49:18.473Z,65.30
2018-06-16T22:51:54.724Z,65.80
2018-06-16T22:54:31.222Z,66.50
2018-06-16T22:57:07.676Z,66.80
2018-06-16T22:59:44.015Z,67.10
2018-06-16T23:02:20.468Z,67.20
2018-06-16T23:04:56.978Z,67.10
2018-06-16T23:07:33.439Z,67.30
2018-06-16T23:10:09.874Z,67.40
2018-06-16T23:12:46.434Z,67.10
2018-06-16T23:15:22.964Z,67.20
2018-06-16T23:17:59.297Z,67.00
2018-06-16T23:20:36.261Z,66.70
2018-06-16T23:23:12.779Z,66.80
2018-06-16T23:25:49.344Z,66.80
2018-06-16T23:28:25.602Z,66.80
2018-06-16T23:31:02.166Z,66.10
2018-06-16T23:33:38.437Z,65.10
2018-06-16T23:36:14.960Z,65.30
2018-06-16T23:38:51.484Z,64.90
2018-06-16T23:41:27.913Z,65.20
2018-06-16T23:44:05.296Z,65.10
2018-06-16T23:46:41.596Z,65.30
2018-06-16T23:49:18.627Z,64.90
2018-06-16T23:54:30.918Z,63.60
2018-06-16T23:57:07.398Z,62.70
2018-06-16T23:59:44.005Z,62.60
